sensor_id;sensor_type;location;lat;lon;timestamp;temperature;humidity
3705;DHT22;1868;48.918;9.438;2023-08-12T00:02:20;18.90;97.40
3705;DHT22;1868;48.918;9.438;2023-08-12T00:04:49;18.90;97.40
3705;DHT22;1868;48.918;9.438;2023-08-12T00:07:18;18.90;97.40
3705;DHT22;1868;48.918;9.438;2023-08-12T00:09:47;18.80;97.40
3705;DHT22;1868;48.918;9.438;2023-08-12T00:12:16;18.80;97.40
3705;DHT22;1868;48.918;9.438;2023-08-12T00:14:46;18.80;97.40
3705;DHT22;1868;48.918;9.438;2023-08-12T00:17:15;18.80;97.40
3705;DHT22;1868;48.918;9.438;2023-08-12T00:19:44;18.80;97.40
3705;DHT22;1868;48.918;9.438;2023-08-12T00:22:13;18.70;97.40
3705;DHT22;1868;48.918;9.438;2023-08-12T00:24:42;18.70;97.40
3705;DHT22;1868;48.918;9.438;2023-08-12T00:27:11;18.70;97.40
3705;DHT22;1868;48.918;9.438;2023-08-12T00:29:40;18.70;97.40
3705;DHT22;1868;48.918;9.438;2023-08-12T00:32:10;18.60;97.40
3705;DHT22;1868;48.918;9.438;2023-08-12T00:34:38;18.60;97.40
3705;DHT22;1868;48.918;9.438;2023-08-12T00:37:07;18.60;97.40
3705;DHT22;1868;48.918;9.438;2023-08-12T00:39:36;18.60;97.40
3705;DHT22;1868;48.918;9.438;2023-08-12T00:42:06;18.60;97.40
3705;DHT22;1868;48.918;9.438;2023-08-12T00:44:34;18.50;97.40
3705;DHT22;1868;48.918;9.438;2023-08-12T00:47:03;18.50;97.40
3705;DHT22;1868;48.918;9.438;2023-08-12T00:49:33;18.50;97.40
3705;DHT22;1868;48.918;9.438;2023-08-12T00:52:04;18.50;97.40
3705;DHT22;1868;48.918;9.438;2023-08-12T00:54:33;18.50;97.40
3705;DHT22;1868;48.918;9.438;2023-08-12T00:57:02;18.40;97.40
3705;DHT22;1868;48.918;9.438;2023-08-12T00:59:35;18.40;97.40
3705;DHT22;1868;48.918;9.438;2023-08-12T01:02:05;18.40;97.40
3705;DHT22;1868;48.918;9.438;2023-08-12T01:04:35;18.30;97.40
3705;DHT22;1868;48.918;9.438;2023-08-12T01:07:04;18.30;97.40
3705;DHT22;1868;48.918;9.438;2023-08-12T01:09:32;18.30;97.40
3705;DHT22;1868;48.918;9.438;2023-08-12T01:12:05;18.30;97.40
3705;DHT22;1868;48.918;9.438;2023-08-12T01:14:43;18.30;97.40
3705;DHT22;1868;48.918;9.438;2023-08-12T01:17:15;18.20;97.40
3705;DHT22;1868;48.918;9.438;2023-08-12T01:19:46;18.20;97.40
3705;DHT22;1868;48.918;9.438;2023-08-12T01:22:22;18.20;97.40
3705;DHT22;1868;48.918;9.438;2023-08-12T01:24:53;18.20;97.40
3705;DHT22;1868;48.918;9.438;2023-08-12T01:27:22;18.10;97.40
3705;DHT22;1868;48.918;9.438;2023-08-12T01:29:52;18.10;97.40
3705;DHT22;1868;48.918;9.438;2023-08-12T01:32:27;18.10;97.40
3705;DHT22;1868;48.918;9.438;2023-08-12T01:35:02;18.10;97.40
3705;DHT22;1868;48.918;9.438;2023-08-12T01:37:37;18.10;97.40
3705;DHT22;1868;48.918;9.438;2023-08-12T01:40:09;18.00;97.40
3705;DHT22;1868;48.918;9.438;2023-08-12T01:42:39;18.00;97.40
3705;DHT22;1868;48.918;9.438;2023-08-12T01:45:09;18.00;97.40
3705;DHT22;1868;48.918;9.438;2023-08-12T01:47:38;18.00;97.40
3705;DHT22;1868;48.918;9.438;2023-08-12T01:50:07;18.00;97.40
3705;DHT22;1868;48.918;9.438;2023-08-12T01:52:38;18.00;97.40
3705;DHT22;1868;48.918;9.438;2023-08-12T01:55:09;18.00;97.40
3705;DHT22;1868;48.918;9.438;2023-08-12T01:57:38;18.00;97.40
3705;DHT22;1868;48.918;9.438;2023-08-12T02:00:07;17.90;97.40
3705;DHT22;1868;48.918;9.438;2023-08-12T02:02:43;17.90;97.40
3705;DHT22;1868;48.918;9.438;2023-08-12T02:05:14;17.90;97.40
3705;DHT22;1868;48.918;9.438;2023-08-12T02:07:43;17.80;97.40
3705;DHT22;1868;48.918;9.438;2023-08-12T02:10:14;17.80;97.40
3705;DHT22;1868;48.918;9.438;2023-08-12T02:12:42;17.80;97.40
3705;DHT22;1868;48.918;9.438;2023-08-12T02:15:11;17.80;97.40
3705;DHT22;1868;48.918;9.438;2023-08-12T02:17:39;17.80;97.40
3705;DHT22;1868;48.918;9.438;2023-08-12T02:20:11;17.80;97.40
3705;DHT22;1868;48.918;9.438;2023-08-12T02:22:39;17.80;97.40
3705;DHT22;1868;48.918;9.438;2023-08-12T02:25:08;17.80;97.40
3705;DHT22;1868;48.918;9.438;2023-08-12T02:27:40;17.80;97.40
3705;DHT22;1868;48.918;9.438;2023-08-12T02:30:09;17.80;97.40
3705;DHT22;1868;48.918;9.438;2023-08-12T02:32:38;17.80;97.40
3705;DHT22;1868;48.918;9.438;2023-08-12T02:35:10;17.80;97.40
3705;DHT22;1868;48.918;9.438;2023-08-12T02:37:39;17.90;97.40
3705;DHT22;1868;48.918;9.438;2023-08-12T02:40:09;17.90;97.40
3705;DHT22;1868;48.918;9.438;2023-08-12T02:42:40;17.90;97.40
3705;DHT22;1868;48.918;9.438;2023-08-12T02:45:09;18.00;97.40
3705;DHT22;1868;48.918;9.438;2023-08-12T02:47:38;18.00;97.40
3705;DHT22;1868;48.918;9.438;2023-08-12T02:50:07;18.00;97.40
3705;DHT22;1868;48.918;9.438;2023-08-12T02:52:37;18.10;97.40
3705;DHT22;1868;48.918;9.438;2023-08-12T02:55:06;18.10;97.40
3705;DHT22;1868;48.918;9.438;2023-08-12T02:57:35;18.10;97.40
3705;DHT22;1868;48.918;9.438;2023-08-12T03:00:07;18.10;97.40
3705;DHT22;1868;48.918;9.438;2023-08-12T03:02:36;18.10;97.40
3705;DHT22;1868;48.918;9.438;2023-08-12T03:05:05;18.20;97.40
3705;DHT22;1868;48.918;9.438;2023-08-12T03:07:35;18.20;97.40
3705;DHT22;1868;48.918;9.438;2023-08-12T03:10:05;18.20;97.40
3705;DHT22;1868;48.918;9.438;2023-08-12T03:12:34;18.20;97.40
3705;DHT22;1868;48.918;9.438;2023-08-12T03:15:07;18.30;97.40
3705;DHT22;1868;48.918;9.438;2023-08-12T03:17:36;18.30;97.40
3705;DHT22;1868;48.918;9.438;2023-08-12T03:20:07;18.30;97.40
3705;DHT22;1868;48.918;9.438;2023-08-12T03:22:37;18.30;97.40
3705;DHT22;1868;48.918;9.438;2023-08-12T03:25:07;18.40;97.40
3705;DHT22;1868;48.918;9.438;2023-08-12T03:27:36;18.40;97.40
3705;DHT22;1868;48.918;9.438;2023-08-12T03:30:10;18.40;97.40
3705;DHT22;1868;48.918;9.438;2023-08-12T03:32:41;18.40;97.40
3705;DHT22;1868;48.918;9.438;2023-08-12T03:35:11;18.40;97.40
3705;DHT22;1868;48.918;9.438;2023-08-12T03:37:40;18.40;97.40
3705;DHT22;1868;48.918;9.438;2023-08-12T03:40:09;18.50;97.40
3705;DHT22;1868;48.918;9.438;2023-08-12T03:42:39;18.50;97.40
3705;DHT22;1868;48.918;9.438;2023-08-12T03:45:11;18.50;97.40
3705;DHT22;1868;48.918;9.438;2023-08-12T03:47:39;18.50;97.40
3705;DHT22;1868;48.918;9.438;2023-08-12T03:50:09;18.50;97.40
3705;DHT22;1868;48.918;9.438;2023-08-12T03:52:39;18.60;97.40
3705;DHT22;1868;48.918;9.438;2023-08-12T03:55:09;18.60;97.40
3705;DHT22;1868;48.918;9.438;2023-08-12T03:57:38;18.60;97.40
3705;DHT22;1868;48.918;9.438;2023-08-12T04:00:07;18.60;97.40
3705;DHT22;1868;48.918;9.438;2023-08-12T04:02:41;18.70;97.40
3705;DHT22;1868;48.918;9.438;2023-08-12T04:05:10;18.70;97.40
3705;DHT22;1868;48.918;9.438;2023-08-12T04:07:39;18.70;97.40
3705;DHT22;1868;48.918;9.438;2023-08-12T04:10:09;18.80;97.40
3705;DHT22;1868;48.918;9.438;2023-08-12T04:12:40;18.80;97.40
3705;DHT22;1868;48.918;9.438;2023-08-12T04:15:10;18.80;97.40
3705;DHT22;1868;48.918;9.438;2023-08-12T04:17:40;18.80;97.40
3705;DHT22;1868;48.918;9.438;2023-08-12T04:20:09;18.80;97.40
3705;DHT22;1868;48.918;9.438;2023-08-12T04:22:38;18.80;97.40
3705;DHT22;1868;48.918;9.438;2023-08-12T04:25:08;18.90;97.40
3705;DHT22;1868;48.918;9.438;2023-08-12T04:27:36;18.80;97.40
3705;DHT22;1868;48.918;9.438;2023-08-12T04:30:07;18.80;97.40
3705;DHT22;1868;48.918;9.438;2023-08-12T04:32:39;18.80;97.40
3705;DHT22;1868;48.918;9.438;2023-08-12T04:35:09;18.80;97.40
3705;DHT22;1868;48.918;9.438;2023-08-12T04:37:38;18.90;97.40
3705;DHT22;1868;48.918;9.438;2023-08-12T04:40:09;18.90;97.40
3705;DHT22;1868;48.918;9.438;2023-08-12T04:42:39;18.90;97.40
3705;DHT22;1868;48.918;9.438;2023-08-12T04:45:09;19.00;97.40
3705;DHT22;1868;48.918;9.438;2023-08-12T04:47:39;19.00;97.40
3705;DHT22;1868;48.918;9.438;2023-08-12T04:50:11;19.00;97.40
3705;DHT22;1868;48.918;9.438;2023-08-12T04:52:40;19.00;97.40
3705;DHT22;1868;48.918;9.438;2023-08-12T04:55:08;19.10;97.40
3705;DHT22;1868;48.918;9.438;2023-08-12T04:57:38;19.10;97.40
3705;DHT22;1868;48.918;9.438;2023-08-12T05:00:08;19.10;97.40
3705;DHT22;1868;48.918;9.438;2023-08-12T05:02:39;19.20;97.40
3705;DHT22;1868;48.918;9.438;2023-08-12T05:05:09;19.20;97.40
3705;DHT22;1868;48.918;9.438;2023-08-12T05:07:38;19.20;97.40
3705;DHT22;1868;48.918;9.438;2023-08-12T05:10:08;19.20;97.40
3705;DHT22;1868;48.918;9.438;2023-08-12T05:12:37;19.30;97.40
3705;DHT22;1868;48.918;9.438;2023-08-12T05:15:07;19.30;97.40
3705;DHT22;1868;48.918;9.438;2023-08-12T05:17:37;19.30;97.40
3705;DHT22;1868;48.918;9.438;2023-08-12T05:20:09;19.30;97.40
3705;DHT22;1868;48.918;9.438;2023-08-12T05:22:38;19.40;97.40
3705;DHT22;1868;48.918;9.438;2023-08-12T05:25:08;19.30;97.40
3705;DHT22;1868;48.918;9.438;2023-08-12T05:27:36;19.40;97.40
3705;DHT22;1868;48.918;9.438;2023-08-12T05:30:06;19.40;97.40
3705;DHT22;1868;48.918;9.438;2023-08-12T05:32:36;19.50;97.40
3705;DHT22;1868;48.918;9.438;2023-08-12T05:35:07;19.60;97.40
3705;DHT22;1868;48.918;9.438;2023-08-12T05:37:36;19.60;97.40
3705;DHT22;1868;48.918;9.438;2023-08-12T05:40:05;19.70;97.40
3705;DHT22;1868;48.918;9.438;2023-08-12T05:42:36;19.70;97.40
3705;DHT22;1868;48.918;9.438;2023-08-12T05:45:05;19.80;97.40
3705;DHT22;1868;48.918;9.438;2023-08-12T05:47:35;19.80;97.40
3705;DHT22;1868;48.918;9.438;2023-08-12T05:50:06;19.80;97.40
3705;DHT22;1868;48.918;9.438;2023-08-12T05:52:35;19.80;97.40
3705;DHT22;1868;48.918;9.438;2023-08-12T05:55:05;19.80;97.40
3705;DHT22;1868;48.918;9.438;2023-08-12T05:57:34;19.80;97.40
3705;DHT22;1868;48.918;9.438;2023-08-12T06:00:03;19.90;97.40
3705;DHT22;1868;48.918;9.438;2023-08-12T06:02:39;19.90;97.40
3705;DHT22;1868;48.918;9.438;2023-08-12T06:05:09;19.90;97.40
3705;DHT22;1868;48.918;9.438;2023-08-12T06:07:38;19.90;97.40
3705;DHT22;1868;48.918;9.438;2023-08-12T06:10:08;20.00;97.40
3705;DHT22;1868;48.918;9.438;2023-08-12T06:12:48;20.00;97.40
3705;DHT22;1868;48.918;9.438;2023-08-12T06:15:18;20.10;97.40
3705;DHT22;1868;48.918;9.438;2023-08-12T06:17:48;20.20;97.40
3705;DHT22;1868;48.918;9.438;2023-08-12T06:20:19;20.20;97.40
3705;DHT22;1868;48.918;9.438;2023-08-12T06:22:47;20.30;97.40
3705;DHT22;1868;48.918;9.438;2023-08-12T06:25:17;20.30;97.40
3705;DHT22;1868;48.918;9.438;2023-08-12T06:27:45;20.40;97.40
3705;DHT22;1868;48.918;9.438;2023-08-12T06:30:14;20.50;97.40
3705;DHT22;1868;48.918;9.438;2023-08-12T06:32:43;20.60;97.40
3705;DHT22;1868;48.918;9.438;2023-08-12T06:35:12;20.60;97.40
3705;DHT22;1868;48.918;9.438;2023-08-12T06:37:43;20.70;97.40
3705;DHT22;1868;48.918;9.438;2023-08-12T06:40:12;20.70;97.40
3705;DHT22;1868;48.918;9.438;2023-08-12T06:42:41;20.70;97.40
3705;DHT22;1868;48.918;9.438;2023-08-12T06:45:10;20.80;97.40
3705;DHT22;1868;48.918;9.438;2023-08-12T06:47:41;20.80;97.40
3705;DHT22;1868;48.918;9.438;2023-08-12T06:50:11;20.90;97.40
3705;DHT22;1868;48.918;9.438;2023-08-12T06:52:40;20.90;97.40
3705;DHT22;1868;48.918;9.438;2023-08-12T06:55:10;20.90;97.40
3705;DHT22;1868;48.918;9.438;2023-08-12T06:57:38;21.00;97.40
3705;DHT22;1868;48.918;9.438;2023-08-12T07:00:08;21.10;97.40
3705;DHT22;1868;48.918;9.438;2023-08-12T07:02:38;21.20;97.40
3705;DHT22;1868;48.918;9.438;2023-08-12T07:05:08;21.30;97.40
3705;DHT22;1868;48.918;9.438;2023-08-12T07:07:37;21.50;97.40
3705;DHT22;1868;48.918;9.438;2023-08-12T07:10:07;21.70;97.40
3705;DHT22;1868;48.918;9.438;2023-08-12T07:12:38;21.80;97.40
3705;DHT22;1868;48.918;9.438;2023-08-12T07:15:07;22.00;97.40
3705;DHT22;1868;48.918;9.438;2023-08-12T07:17:38;22.10;97.40
3705;DHT22;1868;48.918;9.438;2023-08-12T07:20:08;22.30;97.40
3705;DHT22;1868;48.918;9.438;2023-08-12T07:22:37;22.50;97.40
3705;DHT22;1868;48.918;9.438;2023-08-12T07:25:06;22.60;97.40
3705;DHT22;1868;48.918;9.438;2023-08-12T07:27:37;22.70;97.40
3705;DHT22;1868;48.918;9.438;2023-08-12T07:30:07;22.90;97.40
3705;DHT22;1868;48.918;9.438;2023-08-12T07:32:38;23.00;97.40
3705;DHT22;1868;48.918;9.438;2023-08-12T07:35:08;23.10;97.40
3705;DHT22;1868;48.918;9.438;2023-08-12T07:37:38;23.30;97.40
3705;DHT22;1868;48.918;9.438;2023-08-12T07:40:07;23.60;97.40
3705;DHT22;1868;48.918;9.438;2023-08-12T07:42:39;23.90;97.40
3705;DHT22;1868;48.918;9.438;2023-08-12T07:45:09;24.10;97.40
3705;DHT22;1868;48.918;9.438;2023-08-12T07:47:38;24.40;97.40
3705;DHT22;1868;48.918;9.438;2023-08-12T07:50:07;24.60;97.40
3705;DHT22;1868;48.918;9.438;2023-08-12T07:52:36;24.90;97.40
3705;DHT22;1868;48.918;9.438;2023-08-12T07:55:05;25.10;97.40
3705;DHT22;1868;48.918;9.438;2023-08-12T07:57:35;25.40;97.40
3705;DHT22;1868;48.918;9.438;2023-08-12T08:00:07;25.60;97.40
3705;DHT22;1868;48.918;9.438;2023-08-12T08:02:36;25.90;97.40
3705;DHT22;1868;48.918;9.438;2023-08-12T08:05:06;26.20;97.40
3705;DHT22;1868;48.918;9.438;2023-08-12T08:07:35;26.50;97.40
3705;DHT22;1868;48.918;9.438;2023-08-12T08:10:04;26.70;97.40
3705;DHT22;1868;48.918;9.438;2023-08-12T08:12:34;26.90;97.40
3705;DHT22;1868;48.918;9.438;2023-08-12T08:15:06;27.10;97.40
3705;DHT22;1868;48.918;9.438;2023-08-12T08:17:35;27.30;97.40
3705;DHT22;1868;48.918;9.438;2023-08-12T08:20:06;27.60;97.40
3705;DHT22;1868;48.918;9.438;2023-08-12T08:22:36;27.90;97.40
3705;DHT22;1868;48.918;9.438;2023-08-12T08:25:05;28.20;97.40
3705;DHT22;1868;48.918;9.438;2023-08-12T08:27:34;28.50;97.40
3705;DHT22;1868;48.918;9.438;2023-08-12T08:30:06;29.00;97.40
3705;DHT22;1868;48.918;9.438;2023-08-12T08:32:35;29.50;97.40
3705;DHT22;1868;48.918;9.438;2023-08-12T08:35:05;29.80;97.40
3705;DHT22;1868;48.918;9.438;2023-08-12T08:37:34;30.60;97.40
3705;DHT22;1868;48.918;9.438;2023-08-12T08:40:03;31.30;97.40
3705;DHT22;1868;48.918;9.438;2023-08-12T08:42:32;31.80;97.00
3705;DHT22;1868;48.918;9.438;2023-08-12T08:45:11;32.60;95.60
3705;DHT22;1868;48.918;9.438;2023-08-12T08:47:42;33.30;94.70
3705;DHT22;1868;48.918;9.438;2023-08-12T08:50:12;34.10;91.10
3705;DHT22;1868;48.918;9.438;2023-08-12T08:52:41;33.80;90.30
3705;DHT22;1868;48.918;9.438;2023-08-12T08:55:10;33.70;87.50
3705;DHT22;1868;48.918;9.438;2023-08-12T08:57:40;32.90;89.40
3705;DHT22;1868;48.918;9.438;2023-08-12T09:00:16;33.10;91.30
3705;DHT22;1868;48.918;9.438;2023-08-12T09:02:47;33.60;90.50
3705;DHT22;1868;48.918;9.438;2023-08-12T09:05:17;34.10;90.70
3705;DHT22;1868;48.918;9.438;2023-08-12T09:07:47;34.10;90.70
3705;DHT22;1868;48.918;9.438;2023-08-12T09:10:20;33.90;86.00
3705;DHT22;1868;48.918;9.438;2023-08-12T09:12:50;33.60;90.40
3705;DHT22;1868;48.918;9.438;2023-08-12T09:15:21;34.00;91.60
3705;DHT22;1868;48.918;9.438;2023-08-12T09:17:50;34.20;90.50
3705;DHT22;1868;48.918;9.438;2023-08-12T09:20:18;34.50;88.60
3705;DHT22;1868;48.918;9.438;2023-08-12T09:22:55;35.40;81.40
3705;DHT22;1868;48.918;9.438;2023-08-12T09:25:26;34.90;80.60
3705;DHT22;1868;48.918;9.438;2023-08-12T09:27:58;35.80;79.30
3705;DHT22;1868;48.918;9.438;2023-08-12T09:30:32;36.90;76.90
3705;DHT22;1868;48.918;9.438;2023-08-12T09:33:01;37.30;74.60
3705;DHT22;1868;48.918;9.438;2023-08-12T09:35:32;37.60;70.90
3705;DHT22;1868;48.918;9.438;2023-08-12T09:38:03;37.30;73.20
3705;DHT22;1868;48.918;9.438;2023-08-12T09:40:34;37.80;72.00
3705;DHT22;1868;48.918;9.438;2023-08-12T09:43:04;38.60;65.50
3705;DHT22;1868;48.918;9.438;2023-08-12T09:45:35;39.60;65.70
3705;DHT22;1868;48.918;9.438;2023-08-12T09:48:05;40.30;61.20
3705;DHT22;1868;48.918;9.438;2023-08-12T09:50:36;39.50;62.20
3705;DHT22;1868;48.918;9.438;2023-08-12T09:53:05;39.20;58.30
3705;DHT22;1868;48.918;9.438;2023-08-12T09:55:35;39.50;58.70
3705;DHT22;1868;48.918;9.438;2023-08-12T09:58:06;40.20;59.30
3705;DHT22;1868;48.918;9.438;2023-08-12T10:00:38;41.20;56.90
3705;DHT22;1868;48.918;9.438;2023-08-12T10:03:08;42.20;51.40
3705;DHT22;1868;48.918;9.438;2023-08-12T10:05:39;42.10;53.10
3705;DHT22;1868;48.918;9.438;2023-08-12T10:08:08;41.80;51.90
3705;DHT22;1868;48.918;9.438;2023-08-12T10:10:36;42.20;53.50
3705;DHT22;1868;48.918;9.438;2023-08-12T10:13:05;42.50;49.30
3705;DHT22;1868;48.918;9.438;2023-08-12T10:15:34;42.40;49.30
3705;DHT22;1868;48.918;9.438;2023-08-12T10:18:05;42.10;49.90
3705;DHT22;1868;48.918;9.438;2023-08-12T10:20:39;41.30;49.70
3705;DHT22;1868;48.918;9.438;2023-08-12T10:23:12;41.00;53.90
3705;DHT22;1868;48.918;9.438;2023-08-12T10:25:44;40.20;57.70
3705;DHT22;1868;48.918;9.438;2023-08-12T10:28:13;39.90;55.10
3705;DHT22;1868;48.918;9.438;2023-08-12T10:30:44;39.20;59.00
3705;DHT22;1868;48.918;9.438;2023-08-12T10:33:14;38.30;63.10
3705;DHT22;1868;48.918;9.438;2023-08-12T10:35:44;37.40;61.40
3705;DHT22;1868;48.918;9.438;2023-08-12T10:38:17;36.90;64.00
3705;DHT22;1868;48.918;9.438;2023-08-12T10:40:46;36.40;63.50
3705;DHT22;1868;48.918;9.438;2023-08-12T10:43:15;36.40;63.70
3705;DHT22;1868;48.918;9.438;2023-08-12T10:45:48;36.30;62.90
3705;DHT22;1868;48.918;9.438;2023-08-12T10:48:18;37.00;63.10
3705;DHT22;1868;48.918;9.438;2023-08-12T10:50:54;36.40;61.80
3705;DHT22;1868;48.918;9.438;2023-08-12T10:53:25;35.90;64.20
3705;DHT22;1868;48.918;9.438;2023-08-12T10:56:00;35.80;67.00
3705;DHT22;1868;48.918;9.438;2023-08-12T10:58:33;35.70;66.40
3705;DHT22;1868;48.918;9.438;2023-08-12T11:01:11;35.60;67.60
3705;DHT22;1868;48.918;9.438;2023-08-12T11:03:43;35.50;67.60
3705;DHT22;1868;48.918;9.438;2023-08-12T11:06:13;35.70;70.50
3705;DHT22;1868;48.918;9.438;2023-08-12T11:08:46;35.30;68.10
3705;DHT22;1868;48.918;9.438;2023-08-12T11:11:20;34.40;68.90
3705;DHT22;1868;48.918;9.438;2023-08-12T11:13:53;34.20;72.20
3705;DHT22;1868;48.918;9.438;2023-08-12T11:16:36;34.00;73.30
3705;DHT22;1868;48.918;9.438;2023-08-12T11:19:07;33.90;73.50
3705;DHT22;1868;48.918;9.438;2023-08-12T11:21:36;33.40;73.00
3705;DHT22;1868;48.918;9.438;2023-08-12T11:24:05;33.00;73.50
3705;DHT22;1868;48.918;9.438;2023-08-12T11:26:36;33.00;75.60
3705;DHT22;1868;48.918;9.438;2023-08-12T11:29:08;33.20;76.50
3705;DHT22;1868;48.918;9.438;2023-08-12T11:31:39;33.50;75.00
3705;DHT22;1868;48.918;9.438;2023-08-12T11:34:08;34.80;72.40
3705;DHT22;1868;48.918;9.438;2023-08-12T11:36:36;35.00;71.80
3705;DHT22;1868;48.918;9.438;2023-08-12T11:39:04;35.40;68.10
3705;DHT22;1868;48.918;9.438;2023-08-12T11:41:34;36.60;65.70
3705;DHT22;1868;48.918;9.438;2023-08-12T11:44:03;37.00;65.70
3705;DHT22;1868;48.918;9.438;2023-08-12T11:46:33;37.60;61.40
3705;DHT22;1868;48.918;9.438;2023-08-12T11:49:03;38.50;62.00
3705;DHT22;1868;48.918;9.438;2023-08-12T11:51:32;38.40;56.40
3705;DHT22;1868;48.918;9.438;2023-08-12T11:54:01;37.90;60.10
3705;DHT22;1868;48.918;9.438;2023-08-12T11:56:30;37.60;61.20
3705;DHT22;1868;48.918;9.438;2023-08-12T11:59:00;37.30;63.80
3705;DHT22;1868;48.918;9.438;2023-08-12T12:01:29;36.80;62.20
3705;DHT22;1868;48.918;9.438;2023-08-12T12:03:59;36.70;62.30
3705;DHT22;1868;48.918;9.438;2023-08-12T12:06:37;37.50;59.80
3705;DHT22;1868;48.918;9.438;2023-08-12T12:09:07;37.60;58.00
3705;DHT22;1868;48.918;9.438;2023-08-12T12:11:37;37.40;61.20
3705;DHT22;1868;48.918;9.438;2023-08-12T12:14:07;36.80;61.40
3705;DHT22;1868;48.918;9.438;2023-08-12T12:16:38;36.20;61.60
3705;DHT22;1868;48.918;9.438;2023-08-12T12:19:15;35.40;64.00
3705;DHT22;1868;48.918;9.438;2023-08-12T12:21:48;34.80;67.60
3705;DHT22;1868;48.918;9.438;2023-08-12T12:24:18;33.60;84.50
3705;DHT22;1868;48.918;9.438;2023-08-12T12:26:49;32.20;92.50
3705;DHT22;1868;48.918;9.438;2023-08-12T12:29:17;30.70;97.40
3705;DHT22;1868;48.918;9.438;2023-08-12T12:31:46;29.30;97.40
3705;DHT22;1868;48.918;9.438;2023-08-12T12:34:16;28.30;97.40
3705;DHT22;1868;48.918;9.438;2023-08-12T12:36:46;27.80;97.40
3705;DHT22;1868;48.918;9.438;2023-08-12T12:39:15;27.40;97.40
3705;DHT22;1868;48.918;9.438;2023-08-12T12:41:44;27.00;97.40
3705;DHT22;1868;48.918;9.438;2023-08-12T12:44:14;26.80;97.40
3705;DHT22;1868;48.918;9.438;2023-08-12T12:46:43;26.50;97.40
3705;DHT22;1868;48.918;9.438;2023-08-12T12:49:12;26.10;97.40
3705;DHT22;1868;48.918;9.438;2023-08-12T12:51:41;25.90;97.40
3705;DHT22;1868;48.918;9.438;2023-08-12T12:54:12;25.70;97.40
3705;DHT22;1868;48.918;9.438;2023-08-12T12:56:40;25.50;97.40
3705;DHT22;1868;48.918;9.438;2023-08-12T12:59:10;25.20;97.40
3705;DHT22;1868;48.918;9.438;2023-08-12T13:01:38;25.10;97.40
3705;DHT22;1868;48.918;9.438;2023-08-12T13:04:07;24.80;97.40
3705;DHT22;1868;48.918;9.438;2023-08-12T13:06:36;24.50;97.40
3705;DHT22;1868;48.918;9.438;2023-08-12T13:09:05;24.50;97.40
3705;DHT22;1868;48.918;9.438;2023-08-12T13:11:36;24.50;97.40
3705;DHT22;1868;48.918;9.438;2023-08-12T13:14:04;24.50;97.40
3705;DHT22;1868;48.918;9.438;2023-08-12T13:16:33;24.40;97.40
3705;DHT22;1868;48.918;9.438;2023-08-12T13:19:02;24.40;97.40
3705;DHT22;1868;48.918;9.438;2023-08-12T13:21:31;24.20;97.40
3705;DHT22;1868;48.918;9.438;2023-08-12T13:24:00;24.10;97.40
3705;DHT22;1868;48.918;9.438;2023-08-12T13:26:30;24.00;97.40
3705;DHT22;1868;48.918;9.438;2023-08-12T13:29:01;23.80;97.40
3705;DHT22;1868;48.918;9.438;2023-08-12T13:31:30;23.50;97.40
3705;DHT22;1868;48.918;9.438;2023-08-12T13:34:00;23.30;97.40
3705;DHT22;1868;48.918;9.438;2023-08-12T13:36:29;23.20;97.40
3705;DHT22;1868;48.918;9.438;2023-08-12T13:38:58;23.00;97.40
3705;DHT22;1868;48.918;9.438;2023-08-12T13:41:27;23.00;97.40
3705;DHT22;1868;48.918;9.438;2023-08-12T13:43:55;22.90;97.40
3705;DHT22;1868;48.918;9.438;2023-08-12T13:46:27;23.00;97.40
3705;DHT22;1868;48.918;9.438;2023-08-12T13:48:56;23.00;97.40
3705;DHT22;1868;48.918;9.438;2023-08-12T13:51:25;23.10;97.40
3705;DHT22;1868;48.918;9.438;2023-08-12T13:53:53;23.10;97.40
3705;DHT22;1868;48.918;9.438;2023-08-12T13:56:22;23.20;97.40
3705;DHT22;1868;48.918;9.438;2023-08-12T13:58:51;23.30;97.40
3705;DHT22;1868;48.918;9.438;2023-08-12T14:01:19;23.30;97.40
3705;DHT22;1868;48.918;9.438;2023-08-12T14:03:50;23.40;97.40
3705;DHT22;1868;48.918;9.438;2023-08-12T14:06:19;23.50;97.40
3705;DHT22;1868;48.918;9.438;2023-08-12T14:08:48;23.50;97.40
3705;DHT22;1868;48.918;9.438;2023-08-12T14:11:17;23.80;97.40
3705;DHT22;1868;48.918;9.438;2023-08-12T14:13:47;24.10;97.40
3705;DHT22;1868;48.918;9.438;2023-08-12T14:16:16;24.70;97.40
3705;DHT22;1868;48.918;9.438;2023-08-12T14:18:44;25.70;97.40
3705;DHT22;1868;48.918;9.438;2023-08-12T14:21:15;26.60;97.40
3705;DHT22;1868;48.918;9.438;2023-08-12T14:23:43;27.50;97.40
3705;DHT22;1868;48.918;9.438;2023-08-12T14:26:12;28.30;97.40
3705;DHT22;1868;48.918;9.438;2023-08-12T14:28:42;28.90;97.40
3705;DHT22;1868;48.918;9.438;2023-08-12T14:31:10;29.30;97.40
3705;DHT22;1868;48.918;9.438;2023-08-12T14:33:39;29.50;97.40
3705;DHT22;1868;48.918;9.438;2023-08-12T14:36:08;29.50;97.40
3705;DHT22;1868;48.918;9.438;2023-08-12T14:38:38;29.50;97.40
3705;DHT22;1868;48.918;9.438;2023-08-12T14:41:07;29.40;97.40
3705;DHT22;1868;48.918;9.438;2023-08-12T14:43:35;29.40;97.40
3705;DHT22;1868;48.918;9.438;2023-08-12T14:46:05;29.40;97.40
3705;DHT22;1868;48.918;9.438;2023-08-12T14:48:34;29.40;97.40
3705;DHT22;1868;48.918;9.438;2023-08-12T14:51:02;29.30;97.40
3705;DHT22;1868;48.918;9.438;2023-08-12T14:53:31;29.20;97.40
3705;DHT22;1868;48.918;9.438;2023-08-12T14:56:01;29.20;97.40
3705;DHT22;1868;48.918;9.438;2023-08-12T14:58:30;29.20;97.40
3705;DHT22;1868;48.918;9.438;2023-08-12T15:00:59;29.20;97.40
3705;DHT22;1868;48.918;9.438;2023-08-12T15:03:30;29.10;97.40
3705;DHT22;1868;48.918;9.438;2023-08-12T15:05:59;29.10;97.40
3705;DHT22;1868;48.918;9.438;2023-08-12T15:08:28;29.10;97.40
3705;DHT22;1868;48.918;9.438;2023-08-12T15:10:57;29.10;97.40
3705;DHT22;1868;48.918;9.438;2023-08-12T15:13:28;29.10;97.40
3705;DHT22;1868;48.918;9.438;2023-08-12T15:15:57;29.20;97.40
3705;DHT22;1868;48.918;9.438;2023-08-12T15:18:26;29.20;97.40
3705;DHT22;1868;48.918;9.438;2023-08-12T15:20:55;29.20;97.40
3705;DHT22;1868;48.918;9.438;2023-08-12T15:23:24;29.20;97.40
3705;DHT22;1868;48.918;9.438;2023-08-12T15:25:52;29.10;97.40
3705;DHT22;1868;48.918;9.438;2023-08-12T15:28:22;29.10;97.40
3705;DHT22;1868;48.918;9.438;2023-08-12T15:30:51;28.80;97.40
3705;DHT22;1868;48.918;9.438;2023-08-12T15:33:20;28.40;97.40
3705;DHT22;1868;48.918;9.438;2023-08-12T15:35:49;28.10;97.40
3705;DHT22;1868;48.918;9.438;2023-08-12T15:38:18;27.90;97.40
3705;DHT22;1868;48.918;9.438;2023-08-12T15:40:46;27.70;97.40
3705;DHT22;1868;48.918;9.438;2023-08-12T15:43:16;27.60;97.40
3705;DHT22;1868;48.918;9.438;2023-08-12T15:45:47;27.40;97.40
3705;DHT22;1868;48.918;9.438;2023-08-12T15:48:18;27.30;97.40
3705;DHT22;1868;48.918;9.438;2023-08-12T15:50:46;27.20;97.40
3705;DHT22;1868;48.918;9.438;2023-08-12T15:53:15;27.20;97.40
3705;DHT22;1868;48.918;9.438;2023-08-12T15:55:44;27.10;97.40
3705;DHT22;1868;48.918;9.438;2023-08-12T15:58:13;27.00;97.40
3705;DHT22;1868;48.918;9.438;2023-08-12T16:00:45;26.90;97.40
3705;DHT22;1868;48.918;9.438;2023-08-12T16:03:17;26.80;97.40
3705;DHT22;1868;48.918;9.438;2023-08-12T16:05:46;26.60;97.40
3705;DHT22;1868;48.918;9.438;2023-08-12T16:08:19;26.40;97.40
3705;DHT22;1868;48.918;9.438;2023-08-12T16:10:47;26.30;97.40
3705;DHT22;1868;48.918;9.438;2023-08-12T16:13:16;26.10;97.40
3705;DHT22;1868;48.918;9.438;2023-08-12T16:15:45;26.10;97.40
3705;DHT22;1868;48.918;9.438;2023-08-12T16:18:14;26.00;97.40
3705;DHT22;1868;48.918;9.438;2023-08-12T16:20:45;25.90;97.40